Time;durP1;ratioP1;P1;durP2;ratioP2;P2;SDS_P1;SDS_P2;PMS_P1;PMS_P2;Temp;Humidity;BMP_temperature;BMP_pressure;BME280_temperature;BME280_humidity;BME280_pressure;Samples;Min_cycle;Max_cycle;Signal;HPM_P1;HPM_P2
2022/03/22 00:00:07;;;;;;;;;26.25;24.50;;;;;18.84;42.36;102403.66;5105361;27;62117;-77
2022/03/22 00:02:32;;;;;;;;;30.50;23.50;;;;;18.79;42.53;102400.81;5102718;27;64700;-77
2022/03/22 00:04:58;;;;;;;;;27.00;24.50;;;;;18.75;42.63;102407.75;5102822;27;61858;-77
2022/03/22 00:07:23;;;;;;;;;27.25;25.00;;;;;18.72;42.83;102414.69;5105012;27;61958;-77
2022/03/22 00:09:48;;;;;;;;;20.25;19.50;;;;;18.68;42.99;102410.09;5103642;27;61793;-77
2022/03/22 00:12:14;;;;;;;;;30.00;24.50;;;;;18.68;42.80;102410.09;5104124;27;62878;-77
2022/03/22 00:14:40;;;;;;;;;28.25;26.25;;;;;18.65;42.84;102410.91;5103228;27;61771;-77
2022/03/22 00:17:05;;;;;;;;;25.00;19.50;;;;;18.67;42.66;102417.19;5085766;27;61930;-77
2022/03/22 00:19:31;;;;;;;;;26.00;21.00;;;;;18.68;42.54;102420.75;5104435;27;62175;-77
2022/03/22 00:21:57;;;;;;;;;24.50;23.50;;;;;18.67;42.64;102414.53;5104148;27;61764;-77
2022/03/22 00:24:22;;;;;;;;;26.00;21.00;;;;;18.67;42.46;102424.28;5103660;27;62008;-77
2022/03/22 00:26:48;;;;;;;;;29.25;25.00;;;;;18.66;42.26;102411.81;5103756;27;61637;-77
2022/03/22 00:29:13;;;;;;;;;32.25;24.25;;;;;18.65;42.36;102410.91;5104870;27;61868;-77
2022/03/22 00:31:39;;;;;;;;;27.25;24.00;;;;;18.66;42.08;102409.13;5103556;27;62783;-77
2022/03/22 00:34:05;;;;;;;;;21.75;20.25;;;;;18.63;42.23;102417.91;5085349;27;61816;-77
2022/03/22 00:36:32;;;;;;;;;24.25;21.75;;;;;18.62;42.29;102418.78;5086082;27;62107;-77
2022/03/22 00:38:57;;;;;;;;;20.50;20.00;;;;;18.62;42.09;102426.75;5086205;27;61850;-77
2022/03/22 00:41:23;;;;;;;;;21.25;20.25;;;;;18.59;42.23;102423.97;5103883;27;62023;-77
2022/03/22 00:43:48;;;;;;;;;25.00;21.25;;;;;18.59;42.19;102416.91;5103943;27;61743;-77
2022/03/22 00:46:14;;;;;;;;;23.75;21.25;;;;;18.56;42.20;102421.22;5103722;27;61783;-77
2022/03/22 00:48:40;;;;;;;;;24.25;20.50;;;;;18.54;42.21;102417.59;5104237;27;61734;-77
2022/03/22 00:51:06;;;;;;;;;22.00;21.25;;;;;18.50;42.38;102418.31;5084761;27;64160;-77
2022/03/22 00:53:32;;;;;;;;;29.75;24.25;;;;;18.50;42.05;102420.97;5104117;27;61839;-77
2022/03/22 00:56:01;;;;;;;;;20.50;15.00;;;;;18.51;42.20;102426.34;5103683;27;61908;-77
2022/03/22 00:58:26;;;;;;;;;19.25;19.25;;;;;18.50;42.27;102424.53;5102834;27;62187;-77
2022/03/22 01:00:52;;;;;;;;;17.00;15.50;;;;;18.46;42.16;102427.00;5103133;27;62803;-78
2022/03/22 01:03:17;;;;;;;;;22.50;19.00;;;;;18.44;42.33;102424.28;5102000;27;61982;-77
2022/03/22 01:05:43;;;;;;;;;25.00;18.75;;;;;18.39;42.46;102424.13;5102810;27;61972;-77
2022/03/22 01:08:10;;;;;;;;;23.75;20.50;;;;;18.39;42.43;102423.22;5085553;27;62014;-77
2022/03/22 01:10:41;;;;;;;;;22.00;20.00;;;;;18.38;42.36;102429.38;5085061;27;63486;-77
2022/03/22 01:13:08;;;;;;;;;21.00;18.50;;;;;18.37;42.60;102420.50;5085434;27;61927;-77
2022/03/22 01:15:35;;;;;;;;;21.25;19.50;;;;;18.36;42.29;102426.66;5103325;27;61763;-77
2022/03/22 01:18:06;;;;;;;;;24.00;19.00;;;;;18.38;42.29;102426.69;5102268;27;61864;-77
2022/03/22 01:20:33;;;;;;;;;24.50;18.25;;;;;18.41;42.23;102428.59;5103277;27;62766;-77
2022/03/22 01:23:00;;;;;;;;;20.50;20.25;;;;;18.36;42.54;102416.03;5103763;27;61839;-77
2022/03/22 01:25:30;;;;;;;;;25.25;21.75;;;;;18.34;42.39;102422.16;5103865;27;61921;-77
2022/03/22 01:27:57;;;;;;;;;22.75;22.25;;;;;18.33;42.42;102417.66;5084752;27;61876;-77
2022/03/22 01:30:24;;;;;;;;;34.50;20.00;;;;;18.32;42.44;102422.06;5083782;27;62214;-77
2022/03/22 01:32:52;;;;;;;;;24.50;19.50;;;;;18.26;42.35;102423.59;5085017;27;61744;-77
2022/03/22 01:35:18;;;;;;;;;21.50;17.75;;;;;18.25;42.34;102419.09;5103679;27;61810;-77
2022/03/22 01:37:48;;;;;;;;;25.75;20.25;;;;;18.24;42.34;102418.22;5102157;27;61775;-77
2022/03/22 01:40:16;;;;;;;;;17.75;17.25;;;;;18.24;42.25;102414.66;5102756;27;61844;-77
2022/03/22 01:42:42;;;;;;;;;22.25;20.50;;;;;18.21;42.06;102428.72;5103508;27;61838;-77
2022/03/22 01:45:10;;;;;;;;;25.00;19.75;;;;;18.17;42.05;102422.38;5101501;27;61731;-77
2022/03/22 01:47:37;;;;;;;;;24.25;18.25;;;;;18.14;42.29;102422.25;5084814;27;61789;-77
2022/03/22 01:50:09;;;;;;;;;15.00;15.00;;;;;18.15;42.00;102413.44;5102917;27;62011;-77
2022/03/22 01:52:39;;;;;;;;;23.25;20.75;;;;;18.11;41.92;102406.19;5103459;27;61784;-77
2022/03/22 01:55:06;;;;;;;;;25.75;20.75;;;;;18.08;41.79;102408.75;5103140;27;61861;-77
2022/03/22 01:57:33;;;;;;;;;26.50;22.00;;;;;18.10;42.11;102401.72;5102910;27;61755;-77
2022/03/22 02:00:00;;;;;;;;;20.50;17.50;;;;;18.11;42.08;102405.28;5102357;27;61972;-77
2022/03/22 02:08:10;;;;;;;;;21.25;16.25;;;;;18.03;41.66;102402.31;5100594;27;61838;-77
2022/03/22 02:10:37;;;;;;;;;20.50;19.25;;;;;18.00;41.79;102401.31;5100145;27;62158;-77
2022/03/22 02:13:02;;;;;;;;;21.75;16.00;;;;;17.98;41.72;102409.22;5100553;27;61750;-77
2022/03/22 02:15:28;;;;;;;;;22.25;16.50;;;;;17.95;41.67;102398.44;5082609;27;62103;-77
2022/03/22 02:17:53;;;;;;;;;17.00;17.00;;;;;17.92;41.13;102406.31;5083158;27;61799;-77
2022/03/22 02:20:19;;;;;;;;;20.75;17.25;;;;;17.91;41.42;102400.09;5099677;27;62895;-77
2022/03/22 02:23:03;;;;;;;;;15.25;15.25;;;;;17.91;41.02;102396.50;5083351;27;61935;-77
2022/03/22 02:25:29;;;;;;;;;11.00;11.00;;;;;17.87;41.28;102403.47;5083434;27;61927;-77
2022/03/22 02:27:54;;;;;;;;;21.75;18.25;;;;;17.85;41.17;102401.59;5082677;27;61846;-77
2022/03/22 02:30:22;;;;;;;;;20.00;17.25;;;;;17.82;40.93;102402.34;5099254;27;62161;-77
2022/03/22 02:32:52;;;;;;;;;15.50;15.50;;;;;17.80;40.92;102406.66;5100238;27;61978;-77
2022/03/22 02:35:19;;;;;;;;;19.75;17.00;;;;;17.79;40.93;102411.06;5100359;27;61758;-77
2022/03/22 02:37:44;;;;;;;;;19.75;18.25;;;;;17.75;40.62;102408.22;5100161;27;61834;-77
2022/03/22 02:40:13;;;;;;;;;25.00;18.25;;;;;17.73;39.96;102401.94;5099571;27;63185;-77
2022/03/22 02:42:43;;;;;;;;;17.25;16.00;;;;;17.71;39.93;102404.53;5087045;27;61844;-77
2022/03/22 02:45:09;;;;;;;;;22.75;17.75;;;;;17.69;39.74;102410.63;5101325;27;61920;-77
2022/03/22 02:47:35;;;;;;;;;19.50;12.25;;;;;17.70;39.85;102404.50;5103823;27;62170;-77
2022/03/22 02:50:00;;;;;;;;;20.50;17.00;;;;;17.72;39.50;102411.69;5105491;27;62241;-77
2022/03/22 02:52:26;;;;;;;;;21.00;19.25;;;;;17.70;39.44;102415.13;5087541;27;61895;-77
2022/03/22 02:54:51;;;;;;;;;21.25;18.00;;;;;17.69;39.36;102411.53;5087887;27;61771;-77
2022/03/22 02:57:17;;;;;;;;;19.25;17.00;;;;;17.69;39.41;102405.31;5086877;27;62107;-77
2022/03/22 02:59:42;;;;;;;;;16.50;14.25;;;;;17.67;39.77;102407.91;5104023;27;64655;-77
2022/03/22 03:02:08;;;;;;;;;24.75;19.50;;;;;17.66;40.41;102413.19;5087152;27;61980;-77
2022/03/22 03:04:33;;;;;;;;;20.25;16.50;;;;;17.63;40.88;102410.38;5105820;27;61884;-77
2022/03/22 03:06:59;;;;;;;;;26.50;22.75;;;;;17.57;41.59;102411.94;5105616;27;61756;-77
2022/03/22 03:09:25;;;;;;;;;24.00;22.00;;;;;17.55;41.95;102421.59;5105455;27;63986;-77
2022/03/22 03:11:51;;;;;;;;;29.00;22.00;;;;;17.53;42.20;102414.41;5105433;27;61830;-77
2022/03/22 03:17:01;;;;;;;;;33.25;27.25;;;;;17.46;41.90;102436.22;5105359;27;61742;-77
2022/03/22 03:19:26;;;;;;;;;33.50;28.50;;;;;17.40;42.23;102426.25;5103666;27;64792;-77
2022/03/22 03:21:52;;;;;;;;;37.00;23.50;;;;;17.41;42.12;102430.72;5104190;27;61981;-77
2022/03/22 03:24:17;;;;;;;;;34.50;30.75;;;;;17.38;42.47;102430.59;5104207;27;61814;-77
2022/03/22 03:26:42;;;;;;;;;33.75;31.75;;;;;17.36;42.26;102432.28;5104875;27;62175;-77
2022/03/22 03:29:09;;;;;;;;;29.00;25.25;;;;;17.32;42.13;102439.19;5104785;27;61752;-77
2022/03/22 03:31:35;;;;;;;;;32.75;26.75;;;;;17.29;42.47;102441.72;5104972;27;61686;-77
2022/03/22 03:34:00;;;;;;;;;38.50;27.75;;;;;17.24;42.71;102442.34;5105670;27;61786;-77
2022/03/22 03:36:25;;;;;;;;;41.00;33.25;;;;;17.23;42.56;102436.16;5104049;27;61818;-77
2022/03/22 03:38:51;;;;;;;;;32.75;30.75;;;;;17.20;42.59;102441.31;5104825;27;62117;-77
2022/03/22 03:47:03;;;;;;;;;36.25;30.50;;;;;17.14;42.31;102427.78;5105477;27;61841;-77
2022/03/22 03:47:04;;;;;;;;;26.25;23.50;;;;;17.10;42.03;102432.03;5105018;27;61976;-77
2022/03/22 03:49:32;;;;;;;;;34.00;25.25;;;;;17.10;41.80;102425.84;5104771;27;61752;-77
2022/03/22 03:51:57;;;;;;;;;34.50;28.50;;;;;17.08;41.71;102432.81;5086640;27;62011;-77
2022/03/22 03:54:23;;;;;;;;;31.00;25.75;;;;;17.06;41.73;102434.50;5104864;27;61842;-77
2022/03/22 03:56:48;;;;;;;;;31.75;28.75;;;;;17.06;41.69;102439.81;5104349;27;62049;-77
2022/03/22 03:59:14;;;;;;;;;29.25;25.00;;;;;17.04;41.83;102437.06;5103450;27;61778;-77
2022/03/22 04:01:39;;;;;;;;;35.25;28.00;;;;;17.02;41.49;102437.84;5104574;27;61900;-77
2022/03/22 04:04:05;;;;;;;;;45.75;35.50;;;;;17.00;41.51;102445.72;5086604;27;62013;-77
2022/03/22 04:06:31;;;;;;;;;40.25;33.25;;;;;17.00;41.51;102443.09;5104870;27;62106;-77
2022/03/22 04:08:56;;;;;;;;;31.50;27.75;;;;;16.99;41.41;102448.31;5104093;27;61963;-77
2022/03/22 04:11:22;;;;;;;;;27.25;23.00;;;;;16.96;41.09;102449.97;5104505;27;61888;-77
2022/03/22 04:13:48;;;;;;;;;34.00;25.50;;;;;16.95;41.50;102455.25;5104483;27;61760;-77
2022/03/22 04:16:13;;;;;;;;;30.00;24.25;;;;;16.92;41.52;102453.38;5104870;27;61886;-77
2022/03/22 04:18:39;;;;;;;;;33.00;27.50;;;;;16.92;41.45;102463.97;5103968;27;62899;-77
2022/03/22 04:21:04;;;;;;;;;39.25;33.25;;;;;16.90;41.66;102452.38;5103157;27;61797;-77
2022/03/22 04:23:30;;;;;;;;;36.75;30.50;;;;;16.90;41.28;102467.38;5104449;27;61853;-77
2022/03/22 04:25:57;;;;;;;;;30.00;25.75;;;;;16.88;41.38;102459.38;5104089;27;61743;-77
2022/03/22 04:33:51;;;;;;;;;28.50;22.50;;;;;16.79;40.89;102458.00;5104694;27;62174;-77
2022/03/22 04:36:18;;;;;;;;;25.00;23.50;;;;;16.75;41.28;102460.53;5103222;27;61850;-77
2022/03/22 04:38:43;;;;;;;;;30.00;24.50;;;;;16.74;41.03;102457.78;5101733;27;61831;-77
2022/03/22 04:41:09;;;;;;;;;31.50;25.75;;;;;16.68;41.24;102453.09;5102875;27;61951;-77
2022/03/22 04:43:35;;;;;;;;;26.00;23.25;;;;;16.66;41.34;102462.72;5104113;27;61743;-76
2022/03/22 04:46:01;;;;;;;;;29.00;24.75;;;;;16.69;41.23;102461.97;5102904;27;62184;-77
2022/03/22 04:48:27;;;;;;;;;28.50;23.00;;;;;16.69;41.44;102465.53;5102049;27;63719;-77
2022/03/22 04:56:43;;;;;;;;;30.00;25.75;;;;;16.67;41.31;102461.91;5104083;27;61751;-77
2022/03/22 04:59:06;;;;;;;;;27.75;24.75;;;;;16.54;41.56;102471.03;5103607;27;62306;-77
2022/03/22 05:01:32;;;;;;;;;23.75;19.75;;;;;16.49;41.68;102469.88;5084698;27;61923;-77
2022/03/22 05:03:57;;;;;;;;;23.50;23.00;;;;;16.47;41.46;102476.84;5104166;27;61726;-77
2022/03/22 05:06:28;;;;;;;;;29.50;24.50;;;;;16.47;41.65;102483.91;5104249;27;61717;-77
2022/03/22 05:08:59;;;;;;;;;25.50;19.50;;;;;16.45;41.08;102477.63;5102899;27;61894;-77
2022/03/22 05:11:35;;;;;;;;;21.75;20.00;;;;;16.41;41.17;102491.56;5102315;27;61780;-77
2022/03/22 05:14:01;;;;;;;;;23.50;22.00;;;;;16.38;41.44;102488.78;5085175;27;62080;-77
2022/03/22 05:16:27;;;;;;;;;23.25;19.25;;;;;16.38;41.43;102488.78;5102475;27;61840;-77
2022/03/22 05:18:54;;;;;;;;;26.75;21.50;;;;;16.33;41.47;102493.88;5103116;27;61821;-76
2022/03/22 05:21:19;;;;;;;;;24.25;16.50;;;;;16.35;40.75;102490.44;5103716;27;61905;-77
2022/03/22 05:23:45;;;;;;;;;16.75;14.75;;;;;16.38;41.10;102488.78;5103315;27;62049;-77
2022/03/22 05:26:14;;;;;;;;;20.75;16.75;;;;;16.38;40.84;102496.72;5103374;27;62126;-77
2022/03/22 05:28:40;;;;;;;;;27.75;21.00;;;;;16.35;41.11;102498.41;5103094;27;61855;-76
2022/03/22 05:31:08;;;;;;;;;21.25;17.75;;;;;16.32;40.79;102499.97;5084841;27;62567;-77
2022/03/22 05:33:34;;;;;;;;;24.50;21.50;;;;;16.31;40.73;102498.19;5101869;27;61809;-77
2022/03/22 05:36:00;;;;;;;;;25.25;19.50;;;;;16.36;40.88;102501.94;5102396;27;62101;-77
2022/03/22 05:38:25;;;;;;;;;31.00;19.75;;;;;16.40;40.86;102505.66;5101029;27;63679;-77
2022/03/22 05:40:52;;;;;;;;;22.00;18.75;;;;;16.39;41.09;102510.06;5103433;27;61759;-77
2022/03/22 05:43:17;;;;;;;;;23.25;18.25;;;;;16.38;40.76;102510.88;5103397;27;61713;-77
2022/03/22 05:45:48;;;;;;;;;21.00;21.00;;;;;16.38;40.50;102512.63;5103339;27;61673;-77
2022/03/22 05:48:18;;;;;;;;;23.25;21.50;;;;;16.34;40.51;102507.16;5102679;27;61798;-77
2022/03/22 05:50:44;;;;;;;;;23.50;18.25;;;;;16.30;40.42;102510.53;5103313;27;61915;-77
2022/03/22 05:53:12;;;;;;;;;21.25;18.50;;;;;16.30;40.79;102515.81;5102892;27;61810;-77
2022/03/22 05:55:38;;;;;;;;;25.00;19.50;;;;;16.28;40.55;102522.78;5103413;27;62048;-76
2022/03/22 05:58:04;;;;;;;;;27.50;23.00;;;;;16.26;40.89;102521.81;5102247;27;62004;-77
2022/03/22 06:00:30;;;;;;;;;25.00;22.25;;;;;16.29;40.71;102521.94;5103223;27;61776;-77
2022/03/22 06:02:56;;;;;;;;;28.75;20.50;;;;;16.29;40.60;102523.69;5102871;27;61754;-77
2022/03/22 06:05:21;;;;;;;;;31.75;21.75;;;;;16.29;40.91;102526.34;5103268;27;61820;-77
2022/03/22 06:07:47;;;;;;;;;22.75;19.75;;;;;16.32;40.83;102527.41;5101894;27;62448;-77
2022/03/22 06:10:14;;;;;;;;;22.25;19.75;;;;;16.33;40.52;102528.31;5103041;27;61727;-77
2022/03/22 06:12:48;;;;;;;;;24.00;21.00;;;;;16.36;40.37;102529.34;5101703;27;61965;-77
2022/03/22 06:15:15;;;;;;;;;27.25;21.75;;;;;16.38;40.61;102532.09;5103261;27;62159;-77
2022/03/22 06:17:49;;;;;;;;;20.25;20.25;;;;;16.39;40.18;102536.56;5102146;27;62735;-76
2022/03/22 06:20:16;;;;;;;;;26.25;20.00;;;;;16.41;40.61;102541.91;5102591;27;61886;-79
2022/03/22 06:22:42;;;;;;;;;29.25;23.25;;;;;16.39;40.61;102540.94;5104631;27;61898;-75
2022/03/22 06:25:09;;;;;;;;;28.00;21.75;;;;;16.42;40.39;102549.06;5105056;27;62059;-75
2022/03/22 06:27:36;;;;;;;;;37.50;30.50;;;;;16.42;40.43;102544.66;5105061;27;62146;-75
2022/03/22 06:30:06;;;;;;;;;30.00;22.75;;;;;16.42;40.38;102551.69;5088082;27;61867;-76
2022/03/22 06:32:46;;;;;;;;;27.75;25.50;;;;;16.40;40.51;102551.63;5087222;27;61746;-75
2022/03/22 06:35:13;;;;;;;;;29.25;26.00;;;;;16.43;40.77;102549.13;5106283;27;61831;-79
2022/03/22 06:37:39;;;;;;;;;23.75;18.50;;;;;16.48;40.57;102552.91;5086936;27;64011;-76
2022/03/22 06:40:08;;;;;;;;;30.25;28.00;;;;;16.51;40.69;102549.50;5106374;27;61645;-80
2022/03/22 06:42:35;;;;;;;;;27.00;22.00;;;;;16.53;40.41;102555.78;5087930;27;61773;-81
2022/03/22 06:45:03;;;;;;;;;27.50;23.25;;;;;16.59;40.16;102557.81;5105427;27;61766;-78
2022/03/22 06:47:29;;;;;;;;;28.25;24.75;;;;;16.66;40.11;102560.81;5104094;27;61968;-78
2022/03/22 06:49:54;;;;;;;;;28.00;22.00;;;;;16.71;40.09;102556.69;5086686;27;61920;-78
2022/03/22 06:52:20;;;;;;;;;23.25;22.00;;;;;16.80;40.03;102572.16;5105269;27;61767;-79
2022/03/22 06:54:45;;;;;;;;;27.25;23.75;;;;;16.86;39.55;102566.22;5086794;27;62057;-78
2022/03/22 06:57:11;;;;;;;;;27.00;18.50;;;;;16.97;39.70;102575.59;5104339;27;62087;-78
2022/03/22 06:59:36;;;;;;;;;26.75;23.75;;;;;17.13;39.10;102569.25;5086451;27;61950;-78
2022/03/22 07:02:02;;;;;;;;;30.25;24.75;;;;;17.37;39.11;102575.69;5104588;27;61892;-82
2022/03/22 07:04:27;;;;;;;;;26.00;21.50;;;;;17.65;38.61;102570.69;5104864;27;62223;-81
2022/03/22 07:06:53;;;;;;;;;27.75;23.50;;;;;17.95;37.97;102573.81;5103912;27;63153;-82
2022/03/22 07:09:19;;;;;;;;;29.25;24.50;;;;;18.14;37.74;102564.88;5105644;27;61933;-81
2022/03/22 07:11:49;;;;;;;;;29.00;22.50;;;;;18.21;37.28;102574.94;5104863;27;61928;-82
2022/03/22 07:14:16;;;;;;;;;27.25;22.75;;;;;18.28;37.10;102563.69;5087247;27;61856;-81
2022/03/22 07:16:42;;;;;;;;;33.50;23.75;;;;;18.37;36.92;102571.13;5104898;27;62012;-81
2022/03/22 07:19:08;;;;;;;;;26.75;25.75;;;;;18.41;36.34;102573.09;5086803;27;61942;-81
2022/03/22 07:21:33;;;;;;;;;30.75;24.50;;;;;18.57;36.79;102571.94;5105819;27;61749;-82
2022/03/22 07:23:59;;;;;;;;;29.75;24.75;;;;;18.84;36.18;102566.84;5105855;27;62155;-82
2022/03/22 07:26:24;;;;;;;;;37.25;27.00;;;;;19.11;35.42;102567.00;5104543;27;61920;-82
2022/03/22 07:28:50;;;;;;;;;28.50;27.00;;;;;19.39;35.21;102565.38;5086469;27;61784;-82
2022/03/22 07:31:15;;;;;;;;;31.25;26.00;;;;;19.55;34.83;102570.41;5086815;27;62003;-82
2022/03/22 07:33:41;;;;;;;;;26.50;23.00;;;;;19.61;34.69;102565.28;5105170;27;62227;-82
2022/03/22 07:36:06;;;;;;;;;38.75;26.25;;;;;19.81;34.51;102575.78;5104526;27;63024;-82
2022/03/22 07:38:32;;;;;;;;;27.75;24.00;;;;;19.94;34.30;102569.13;5085987;27;61884;-82
2022/03/22 07:40:57;;;;;;;;;30.25;24.75;;;;;19.96;33.93;102567.41;5102958;27;62028;-78
2022/03/22 07:43:23;;;;;;;;;25.25;24.50;;;;;20.03;33.94;102569.47;5084402;27;61940;-84
2022/03/22 07:45:49;;;;;;;;;33.00;28.75;;;;;19.98;34.06;102581.72;5101876;27;63906;-82
2022/03/22 07:48:14;;;;;;;;;28.25;24.25;;;;;19.94;34.59;102582.44;5102783;27;61799;-83
2022/03/22 07:53:45;;;;;;;;;31.75;28.50;;;;;19.86;34.71;102589.25;5059544;28;62027;-83
2022/03/22 07:56:13;;;;;;;;;27.75;24.75;;;;;19.79;34.89;102586.41;5059908;28;64267;-83
2022/03/22 07:58:39;;;;;;;;;29.50;25.25;;;;;19.77;34.46;102579.19;5061006;28;62210;-83
2022/03/22 08:01:04;;;;;;;;;29.75;26.75;;;;;19.77;34.42;102574.78;5060394;28;62262;-82
2022/03/22 08:03:30;;;;;;;;;34.50;29.50;;;;;19.77;34.34;102579.19;5043074;28;62022;-82
2022/03/22 08:05:55;;;;;;;;;39.75;27.75;;;;;19.76;34.20;102572.06;5060010;28;62088;-84
2022/03/22 08:08:21;;;;;;;;;25.00;22.75;;;;;19.77;34.45;102584.53;5043543;28;62162;-82
2022/03/22 08:10:47;;;;;;;;;28.00;24.25;;;;;19.78;34.74;102583.69;5044169;28;62089;-81
2022/03/22 08:13:13;;;;;;;;;36.50;30.50;;;;;19.81;34.85;102592.66;5060784;28;61831;-84
2022/03/22 08:15:39;;;;;;;;;32.25;25.75;;;;;19.86;34.56;102590.19;5059847;28;62846;-77
2022/03/22 08:18:05;;;;;;;;;35.25;30.00;;;;;19.86;34.36;102592.88;5034800;28;62262;-77
2022/03/22 08:20:31;;;;;;;;;32.50;27.50;;;;;19.87;33.91;102596.44;5060724;28;62193;-77
2022/03/22 08:23:04;;;;;;;;;35.25;29.25;;;;;19.87;33.85;102593.75;5044746;28;61892;-77
2022/03/22 08:25:36;;;;;;;;;38.50;30.25;;;;;19.86;34.27;102603.53;5081541;28;62916;-77
2022/03/22 08:28:04;;;;;;;;;30.25;29.00;;;;;19.86;33.80;102594.59;5099167;27;61898;-77
2022/03/22 08:30:30;;;;;;;;;28.50;26.25;;;;;19.87;33.84;102596.44;5084226;28;61752;-77
2022/03/22 08:33:09;;;;;;;;;30.75;28.25;;;;;19.93;34.08;102592.22;5105004;27;61935;-77
2022/03/22 08:35:37;;;;;;;;;27.50;24.75;;;;;19.97;33.66;102588.81;5085432;27;63219;-77
2022/03/22 08:38:02;;;;;;;;;32.25;28.50;;;;;19.92;33.60;102590.38;5104364;27;61938;-77
2022/03/22 08:40:28;;;;;;;;;31.00;29.00;;;;;19.91;33.45;102582.34;5104541;27;61996;-77
2022/03/22 08:42:56;;;;;;;;;32.25;24.50;;;;;19.94;33.45;102587.78;5104439;27;61922;-77
2022/03/22 08:45:25;;;;;;;;;32.50;27.75;;;;;20.00;33.96;102588.91;5102577;27;62126;-77
2022/03/22 08:47:52;;;;;;;;;38.25;25.75;;;;;20.07;33.46;102582.00;5101731;27;61726;-77
2022/03/22 08:50:20;;;;;;;;;37.25;28.75;;;;;20.11;33.33;102593.69;5102708;27;61760;-77
2022/03/22 08:52:47;;;;;;;;;33.50;26.75;;;;;20.16;33.44;102590.34;5104323;27;61896;-77
2022/03/22 08:55:14;;;;;;;;;31.50;26.25;;;;;20.16;32.72;102589.44;5103396;27;62797;-77
2022/03/22 08:57:41;;;;;;;;;31.50;24.50;;;;;20.16;31.20;102584.13;5084459;27;62080;-77
2022/03/22 09:00:09;;;;;;;;;28.75;22.00;;;;;20.21;31.94;102587.84;5101877;27;61811;-76
2022/03/22 09:02:38;;;;;;;;;30.75;23.75;;;;;20.21;30.84;102578.06;5102604;27;61973;-76
2022/03/22 09:07:50;;;;;;;;;23.25;22.00;;;;;20.14;27.68;102583.16;5103920;27;61848;-76
2022/03/22 09:10:18;;;;;;;;;30.00;21.25;;;;;20.14;27.04;102575.16;5101737;27;61686;-78
2022/03/22 09:12:44;;;;;;;;;18.25;17.00;;;;;20.16;27.28;102577.00;5104180;27;62190;-79
2022/03/22 09:15:11;;;;;;;;;22.00;18.25;;;;;20.23;27.09;102573.69;5077445;28;63822;-75
2022/03/22 09:17:37;;;;;;;;;18.00;16.00;;;;;20.26;26.72;102580.88;5062309;28;62596;-76
2022/03/22 09:20:03;;;;;;;;;25.00;20.25;;;;;20.26;26.49;102571.97;5062063;28;61915;-76
2022/03/22 09:22:28;;;;;;;;;27.25;22.25;;;;;20.32;27.00;102577.53;5062027;28;62165;-77
2022/03/22 09:24:54;;;;;;;;;24.75;19.50;;;;;20.37;26.23;102582.16;5058441;28;62779;-76
2022/03/22 09:27:19;;;;;;;;;21.50;15.75;;;;;20.41;26.21;102583.16;5043293;28;62030;-76
2022/03/22 09:29:44;;;;;;;;;22.75;18.00;;;;;20.45;26.01;102589.50;5061502;28;61898;-76
2022/03/22 09:32:10;;;;;;;;;20.75;16.75;;;;;20.50;24.91;102587.88;5062423;28;62039;-76
2022/03/22 09:34:36;;;;;;;;;14.75;14.50;;;;;20.50;24.43;102585.19;5062709;28;62136;-76
2022/03/22 09:37:01;;;;;;;;;21.50;16.25;;;;;20.46;22.32;102581.56;5062890;28;62102;-76
2022/03/22 09:39:27;;;;;;;;;14.25;13.50;;;;;20.47;22.28;102583.34;5062409;28;62052;-77
2022/03/22 09:41:53;;;;;;;;;17.75;14.00;;;;;20.48;22.44;102578.91;5063104;28;62160;-77
2022/03/22 09:44:19;;;;;;;;;17.00;14.25;;;;;20.51;22.46;102585.25;5060955;28;62095;-76
2022/03/22 09:46:51;;;;;;;;;18.75;15.25;;;;;20.58;22.87;102583.72;5061103;28;61716;-76
2022/03/22 09:49:17;;;;;;;;;14.75;13.50;;;;;20.62;22.59;102575.88;5062495;28;61705;-76
2022/03/22 09:51:50;;;;;;;;;15.75;13.75;;;;;20.66;22.52;102576.88;5062895;28;61674;-76
2022/03/22 09:54:19;;;;;;;;;16.50;15.00;;;;;20.72;22.75;102570.84;5061930;28;61768;-76
2022/03/22 09:56:46;;;;;;;;;14.50;14.00;;;;;20.72;22.85;102573.50;5062102;28;61914;-76
2022/03/22 09:59:14;;;;;;;;;16.00;15.25;;;;;20.74;22.42;102580.69;5081036;28;61677;-76
2022/03/22 10:01:40;;;;;;;;;20.00;14.50;;;;;20.77;22.59;102577.22;5066029;28;61909;-76
2022/03/22 10:04:07;;;;;;;;;17.50;15.00;;;;;20.85;22.32;102575.69;5064321;28;63234;-76
2022/03/22 10:06:34;;;;;;;;;19.75;16.50;;;;;20.90;21.55;102566.06;5065871;28;61756;-76
2022/03/22 10:09:02;;;;;;;;;18.00;14.25;;;;;20.90;21.28;102576.72;5047421;28;61746;-76
2022/03/22 10:11:39;;;;;;;;;20.00;14.50;;;;;20.90;21.80;102576.72;5048120;28;61814;-76
2022/03/22 10:14:08;;;;;;;;;16.75;14.75;;;;;20.94;21.73;102570.63;5067556;28;61859;-77
2022/03/22 10:16:48;;;;;;;;;14.50;11.50;;;;;20.97;21.33;102569.81;5082543;28;61923;-76
2022/03/22 10:19:22;;;;;;;;;16.00;10.50;;;;;20.99;21.83;102571.69;5059769;28;61860;-76
2022/03/22 10:21:48;;;;;;;;;18.50;12.50;;;;;21.04;20.65;102577.16;5068146;28;61860;-76
2022/03/22 10:24:17;;;;;;;;;16.75;11.00;;;;;21.00;20.61;102565.47;5066457;28;64131;-76
2022/03/22 10:26:44;;;;;;;;;17.75;13.25;;;;;21.04;20.97;102563.81;5084415;28;61745;-77
2022/03/22 10:29:16;;;;;;;;;15.50;12.00;;;;;21.12;21.06;102564.03;5067211;28;61957;-76
2022/03/22 10:31:43;;;;;;;;;18.25;16.25;;;;;21.18;20.43;102566.88;5085656;28;62011;-77
2022/03/22 10:34:11;;;;;;;;;15.25;14.25;;;;;21.27;21.62;102567.13;5085196;28;61843;-76
2022/03/22 10:36:38;;;;;;;;;17.00;13.25;;;;;21.33;21.04;102569.97;5085917;28;61774;-77
2022/03/22 10:39:10;;;;;;;;;17.50;14.00;;;;;21.34;21.33;102566.47;5067261;28;62107;-76
2022/03/22 10:41:41;;;;;;;;;21.00;18.50;;;;;21.43;21.00;102560.50;5085082;28;61885;-77
2022/03/22 10:44:08;;;;;;;;;19.00;15.50;;;;;21.54;21.47;102560.81;5084511;28;62083;-76
2022/03/22 10:46:35;;;;;;;;;15.00;12.25;;;;;21.62;21.22;102562.84;5083964;28;61976;-76
2022/03/22 10:49:03;;;;;;;;;12.25;9.75;;;;;21.72;20.95;102555.94;5085500;28;61873;-77
2022/03/22 10:51:49;;;;;;;;;13.50;11.50;;;;;21.79;21.16;102562.38;5085916;28;61829;-77
2022/03/22 10:54:18;;;;;;;;;20.25;17.50;;;;;21.93;20.60;102552.94;5085081;28;61872;-77
2022/03/22 10:56:53;;;;;;;;;22.75;15.75;;;;;22.01;20.39;102551.38;5066672;28;61733;-77
2022/03/22 10:59:21;;;;;;;;;17.00;16.00;;;;;22.14;20.95;102549.91;5085121;28;61978;-76
2022/03/22 11:01:48;;;;;;;;;15.75;12.50;;;;;22.30;21.02;102550.31;5066466;28;61947;-77
2022/03/22 11:04:15;;;;;;;;;15.00;12.00;;;;;22.43;21.03;102547.06;5082195;28;62059;-77
2022/03/22 11:06:42;;;;;;;;;14.50;13.50;;;;;22.51;19.79;102541.91;5085850;28;61938;-77
2022/03/22 11:09:08;;;;;;;;;19.25;14.50;;;;;22.63;20.06;102543.09;5084930;28;62066;-77
2022/03/22 11:11:36;;;;;;;;;16.25;14.00;;;;;22.77;19.86;102532.72;5081105;28;62137;-79
2022/03/22 11:14:02;;;;;;;;;21.00;17.50;;;;;22.94;20.43;102538.41;5082848;28;61895;-81
2022/03/22 11:16:31;;;;;;;;;14.00;12.00;;;;;23.04;20.28;102540.44;5065409;28;61964;-80
2022/03/22 11:18:59;;;;;;;;;12.50;12.50;;;;;23.20;20.21;102535.41;5083680;28;61900;-81
2022/03/22 11:21:26;;;;;;;;;14.75;14.25;;;;;23.30;20.39;102525.78;5065893;28;61832;-80
2022/03/22 11:24:07;;;;;;;;;13.00;12.75;;;;;23.45;20.57;102529.66;5083159;28;63084;-81
2022/03/22 11:26:44;;;;;;;;;17.25;13.25;;;;;23.61;20.44;102530.84;5083173;28;61908;-78
2022/03/22 11:29:11;;;;;;;;;18.00;13.50;;;;;23.74;20.22;102521.25;5083921;28;61769;-79
2022/03/22 11:31:40;;;;;;;;;18.00;11.25;;;;;23.87;20.30;102523.31;5065079;28;62086;-77
2022/03/22 11:34:09;;;;;;;;;15.50;12.50;;;;;24.03;20.99;102523.56;5083361;28;62843;-79
2022/03/22 11:36:53;;;;;;;;;17.75;13.75;;;;;24.11;19.18;102516.53;5065977;28;62149;-80